sensor_id;sensor_type;location;lat;lon;timestamp;P1;durP1;ratioP1;P2;durP2;ratioP2
13953;SDS011;7049;49.444;8.522;2023-03-03T00:04:24;1.73;;;1.63;;
13953;SDS011;7049;49.444;8.522;2023-03-03T00:09:26;1.93;;;1.30;;
13953;SDS011;7049;49.444;8.522;2023-03-03T00:14:29;2.60;;;2.40;;
13953;SDS011;7049;49.444;8.522;2023-03-03T00:19:35;2.00;;;1.90;;
13953;SDS011;7049;49.444;8.522;2023-03-03T00:24:42;2.50;;;2.03;;
13953;SDS011;7049;49.444;8.522;2023-03-03T00:29:46;2.90;;;1.70;;
13953;SDS011;7049;49.444;8.522;2023-03-03T00:34:50;5.07;;;1.87;;
13953;SDS011;7049;49.444;8.522;2023-03-03T00:39:52;2.20;;;2.00;;
13953;SDS011;7049;49.444;8.522;2023-03-03T00:45:00;1.63;;;1.53;;
13953;SDS011;7049;49.444;8.522;2023-03-03T00:55:29;0.87;;;0.87;;
13953;SDS011;7049;49.444;8.522;2023-03-03T01:00:32;3.47;;;1.67;;
13953;SDS011;7049;49.444;8.522;2023-03-03T01:05:35;2.23;;;2.07;;
13953;SDS011;7049;49.444;8.522;2023-03-03T01:10:37;1.43;;;1.27;;
13953;SDS011;7049;49.444;8.522;2023-03-03T01:15:45;3.13;;;1.80;;
13953;SDS011;7049;49.444;8.522;2023-03-03T01:20:49;1.07;;;1.07;;
13953;SDS011;7049;49.444;8.522;2023-03-03T01:25:51;1.33;;;0.83;;
13953;SDS011;7049;49.444;8.522;2023-03-03T01:30:54;1.53;;;1.33;;
13953;SDS011;7049;49.444;8.522;2023-03-03T01:36:01;1.80;;;1.70;;
13953;SDS011;7049;49.444;8.522;2023-03-03T01:41:03;1.20;;;1.10;;
13953;SDS011;7049;49.444;8.522;2023-03-03T01:51:34;5.43;;;2.47;;
13953;SDS011;7049;49.444;8.522;2023-03-03T01:56:38;2.53;;;1.63;;
13953;SDS011;7049;49.444;8.522;2023-03-03T02:01:45;2.57;;;1.43;;
13953;SDS011;7049;49.444;8.522;2023-03-03T02:06:49;4.40;;;2.03;;
13953;SDS011;7049;49.444;8.522;2023-03-03T02:12:00;1.73;;;1.13;;
13953;SDS011;7049;49.444;8.522;2023-03-03T02:17:07;1.47;;;1.37;;
13953;SDS011;7049;49.444;8.522;2023-03-03T02:22:08;0.73;;;0.73;;
13953;SDS011;7049;49.444;8.522;2023-03-03T02:27:11;1.40;;;1.30;;
13953;SDS011;7049;49.444;8.522;2023-03-03T02:32:13;1.73;;;1.60;;
13953;SDS011;7049;49.444;8.522;2023-03-03T02:37:15;1.30;;;1.20;;
13953;SDS011;7049;49.444;8.522;2023-03-03T02:42:18;1.13;;;1.13;;
13953;SDS011;7049;49.444;8.522;2023-03-03T02:47:22;1.67;;;1.30;;
13953;SDS011;7049;49.444;8.522;2023-03-03T02:52:24;2.67;;;1.40;;
13953;SDS011;7049;49.444;8.522;2023-03-03T02:57:26;1.43;;;1.37;;
13953;SDS011;7049;49.444;8.522;2023-03-03T03:02:28;1.97;;;1.50;;
13953;SDS011;7049;49.444;8.522;2023-03-03T03:07:29;1.37;;;1.17;;
13953;SDS011;7049;49.444;8.522;2023-03-03T03:12:32;1.17;;;1.07;;
13953;SDS011;7049;49.444;8.522;2023-03-03T03:17:34;1.80;;;1.23;;
13953;SDS011;7049;49.444;8.522;2023-03-03T03:22:36;0.87;;;0.87;;
13953;SDS011;7049;49.444;8.522;2023-03-03T03:27:39;1.07;;;1.07;;
13953;SDS011;7049;49.444;8.522;2023-03-03T03:32:40;2.50;;;2.30;;
13953;SDS011;7049;49.444;8.522;2023-03-03T03:37:42;1.90;;;0.90;;
13953;SDS011;7049;49.444;8.522;2023-03-03T03:42:45;1.80;;;1.13;;
13953;SDS011;7049;49.444;8.522;2023-03-03T03:47:46;1.70;;;1.57;;
13953;SDS011;7049;49.444;8.522;2023-03-03T03:52:48;1.23;;;1.13;;
13953;SDS011;7049;49.444;8.522;2023-03-03T03:57:51;1.30;;;1.20;;
13953;SDS011;7049;49.444;8.522;2023-03-03T04:02:52;1.77;;;1.30;;
13953;SDS011;7049;49.444;8.522;2023-03-03T04:07:53;1.10;;;1.00;;
13953;SDS011;7049;49.444;8.522;2023-03-03T04:12:56;2.00;;;1.67;;
13953;SDS011;7049;49.444;8.522;2023-03-03T04:17:58;1.83;;;1.73;;
13953;SDS011;7049;49.444;8.522;2023-03-03T04:22:59;1.63;;;1.53;;
13953;SDS011;7049;49.444;8.522;2023-03-03T04:28:02;2.43;;;1.27;;
13953;SDS011;7049;49.444;8.522;2023-03-03T04:33:03;0.93;;;0.93;;
13953;SDS011;7049;49.444;8.522;2023-03-03T04:38:05;1.20;;;1.20;;
13953;SDS011;7049;49.444;8.522;2023-03-03T04:43:08;1.03;;;0.97;;
13953;SDS011;7049;49.444;8.522;2023-03-03T04:48:10;2.40;;;1.07;;
13953;SDS011;7049;49.444;8.522;2023-03-03T04:53:12;0.97;;;0.97;;
13953;SDS011;7049;49.444;8.522;2023-03-03T04:58:15;1.30;;;1.03;;
13953;SDS011;7049;49.444;8.522;2023-03-03T05:03:18;1.80;;;0.80;;
13953;SDS011;7049;49.444;8.522;2023-03-03T05:08:19;0.60;;;0.60;;
13953;SDS011;7049;49.444;8.522;2023-03-03T05:13:22;0.50;;;0.50;;
13953;SDS011;7049;49.444;8.522;2023-03-03T05:18:24;1.47;;;1.00;;
13953;SDS011;7049;49.444;8.522;2023-03-03T05:23:26;1.47;;;0.63;;
13953;SDS011;7049;49.444;8.522;2023-03-03T05:28:29;1.07;;;1.07;;
13953;SDS011;7049;49.444;8.522;2023-03-03T05:33:31;1.30;;;1.20;;
13953;SDS011;7049;49.444;8.522;2023-03-03T05:38:32;0.80;;;0.80;;
13953;SDS011;7049;49.444;8.522;2023-03-03T05:43:35;1.53;;;0.83;;
13953;SDS011;7049;49.444;8.522;2023-03-03T05:48:36;1.37;;;1.23;;
13953;SDS011;7049;49.444;8.522;2023-03-03T05:53:38;1.43;;;1.13;;
13953;SDS011;7049;49.444;8.522;2023-03-03T05:58:41;0.77;;;0.77;;
13953;SDS011;7049;49.444;8.522;2023-03-03T06:03:42;0.40;;;0.30;;
13953;SDS011;7049;49.444;8.522;2023-03-03T06:08:44;3.40;;;0.50;;
13953;SDS011;7049;49.444;8.522;2023-03-03T06:13:46;0.93;;;0.67;;
13953;SDS011;7049;49.444;8.522;2023-03-03T06:18:48;1.27;;;1.17;;
13953;SDS011;7049;49.444;8.522;2023-03-03T06:23:49;0.50;;;0.50;;
13953;SDS011;7049;49.444;8.522;2023-03-03T06:28:52;0.83;;;0.83;;
13953;SDS011;7049;49.444;8.522;2023-03-03T06:33:54;0.50;;;0.50;;
13953;SDS011;7049;49.444;8.522;2023-03-03T06:38:55;0.53;;;0.53;;
13953;SDS011;7049;49.444;8.522;2023-03-03T06:43:58;0.33;;;0.33;;
13953;SDS011;7049;49.444;8.522;2023-03-03T06:49:00;1.07;;;0.67;;
13953;SDS011;7049;49.444;8.522;2023-03-03T06:54:08;1.33;;;0.70;;
13953;SDS011;7049;49.444;8.522;2023-03-03T06:59:13;1.33;;;1.23;;
13953;SDS011;7049;49.444;8.522;2023-03-03T07:04:21;1.10;;;0.87;;
13953;SDS011;7049;49.444;8.522;2023-03-03T07:09:28;0.93;;;0.47;;
13953;SDS011;7049;49.444;8.522;2023-03-03T07:14:31;1.03;;;1.03;;
13953;SDS011;7049;49.444;8.522;2023-03-03T07:19:36;0.77;;;0.77;;
13953;SDS011;7049;49.444;8.522;2023-03-03T07:24:40;0.87;;;0.87;;
13953;SDS011;7049;49.444;8.522;2023-03-03T07:29:44;0.83;;;0.83;;
13953;SDS011;7049;49.444;8.522;2023-03-03T07:34:48;1.07;;;1.07;;
13953;SDS011;7049;49.444;8.522;2023-03-03T07:39:52;0.60;;;0.60;;
13953;SDS011;7049;49.444;8.522;2023-03-03T07:44:56;1.63;;;1.47;;
13953;SDS011;7049;49.444;8.522;2023-03-03T07:50:00;0.90;;;0.87;;
13953;SDS011;7049;49.444;8.522;2023-03-03T07:55:19;1.77;;;1.17;;
13953;SDS011;7049;49.444;8.522;2023-03-03T08:06:23;1.47;;;1.10;;
13953;SDS011;7049;49.444;8.522;2023-03-03T08:11:31;0.60;;;0.60;;
13953;SDS011;7049;49.444;8.522;2023-03-03T08:16:34;1.57;;;1.10;;
13953;SDS011;7049;49.444;8.522;2023-03-03T08:21:39;2.40;;;1.30;;
13953;SDS011;7049;49.444;8.522;2023-03-03T08:26:40;0.97;;;0.97;;
13953;SDS011;7049;49.444;8.522;2023-03-03T08:31:42;1.23;;;1.13;;
13953;SDS011;7049;49.444;8.522;2023-03-03T08:36:45;2.97;;;2.07;;
13953;SDS011;7049;49.444;8.522;2023-03-03T08:41:48;1.13;;;1.13;;
13953;SDS011;7049;49.444;8.522;2023-03-03T08:46:50;2.37;;;2.07;;
13953;SDS011;7049;49.444;8.522;2023-03-03T08:51:53;1.33;;;1.13;;
13953;SDS011;7049;49.444;8.522;2023-03-03T08:56:54;1.17;;;1.10;;
13953;SDS011;7049;49.444;8.522;2023-03-03T09:01:55;1.30;;;1.30;;
13953;SDS011;7049;49.444;8.522;2023-03-03T09:07:01;1.30;;;0.90;;
13953;SDS011;7049;49.444;8.522;2023-03-03T09:12:05;4.33;;;2.07;;
13953;SDS011;7049;49.444;8.522;2023-03-03T09:17:22;2.60;;;1.60;;
13953;SDS011;7049;49.444;8.522;2023-03-03T09:22:27;1.93;;;1.60;;
13953;SDS011;7049;49.444;8.522;2023-03-03T09:27:29;2.50;;;1.70;;
13953;SDS011;7049;49.444;8.522;2023-03-03T09:32:35;3.13;;;1.63;;
13953;SDS011;7049;49.444;8.522;2023-03-03T09:37:39;3.77;;;1.07;;
13953;SDS011;7049;49.444;8.522;2023-03-03T09:42:51;1.93;;;1.83;;
13953;SDS011;7049;49.444;8.522;2023-03-03T09:53:32;2.27;;;2.03;;
13953;SDS011;7049;49.444;8.522;2023-03-03T09:58:56;1.93;;;1.80;;
13953;SDS011;7049;49.444;8.522;2023-03-03T10:04:23;2.50;;;2.30;;
13953;SDS011;7049;49.444;8.522;2023-03-03T10:09:53;2.30;;;1.57;;
13953;SDS011;7049;49.444;8.522;2023-03-03T10:15:10;2.27;;;1.97;;
13953;SDS011;7049;49.444;8.522;2023-03-03T10:20:26;6.57;;;2.47;;
13953;SDS011;7049;49.444;8.522;2023-03-03T10:25:38;3.67;;;2.00;;
13953;SDS011;7049;49.444;8.522;2023-03-03T10:30:43;2.03;;;1.57;;
13953;SDS011;7049;49.444;8.522;2023-03-03T10:36:02;1.90;;;1.67;;
13953;SDS011;7049;49.444;8.522;2023-03-03T10:41:27;3.40;;;2.27;;
13953;SDS011;7049;49.444;8.522;2023-03-03T10:46:43;3.97;;;1.97;;
13953;SDS011;7049;49.444;8.522;2023-03-03T10:52:02;1.47;;;1.33;;
13953;SDS011;7049;49.444;8.522;2023-03-03T10:57:21;3.33;;;2.93;;
13953;SDS011;7049;49.444;8.522;2023-03-03T11:02:28;3.97;;;2.47;;
13953;SDS011;7049;49.444;8.522;2023-03-03T11:07:39;5.27;;;1.87;;
13953;SDS011;7049;49.444;8.522;2023-03-03T11:12:48;3.87;;;1.63;;
13953;SDS011;7049;49.444;8.522;2023-03-03T11:18:02;4.00;;;2.83;;
13953;SDS011;7049;49.444;8.522;2023-03-03T11:23:25;1.67;;;1.57;;
13953;SDS011;7049;49.444;8.522;2023-03-03T11:28:46;2.70;;;2.50;;
13953;SDS011;7049;49.444;8.522;2023-03-03T11:34:03;2.20;;;2.00;;
13953;SDS011;7049;49.444;8.522;2023-03-03T11:39:12;2.37;;;2.03;;
13953;SDS011;7049;49.444;8.522;2023-03-03T11:44:20;2.67;;;1.90;;
13953;SDS011;7049;49.444;8.522;2023-03-03T11:49:26;2.87;;;2.17;;
13953;SDS011;7049;49.444;8.522;2023-03-03T11:54:35;2.10;;;1.90;;
13953;SDS011;7049;49.444;8.522;2023-03-03T11:59:48;1.93;;;1.83;;
13953;SDS011;7049;49.444;8.522;2023-03-03T12:05:03;3.13;;;2.40;;
13953;SDS011;7049;49.444;8.522;2023-03-03T12:10:12;2.53;;;2.17;;
13953;SDS011;7049;49.444;8.522;2023-03-03T12:15:24;2.57;;;2.17;;
13953;SDS011;7049;49.444;8.522;2023-03-03T12:20:31;3.90;;;2.43;;
13953;SDS011;7049;49.444;8.522;2023-03-03T12:25:40;2.40;;;2.20;;
13953;SDS011;7049;49.444;8.522;2023-03-03T12:36:34;4.30;;;2.07;;
13953;SDS011;7049;49.444;8.522;2023-03-03T12:41:46;5.80;;;2.97;;
13953;SDS011;7049;49.444;8.522;2023-03-03T12:46:59;4.23;;;1.93;;
13953;SDS011;7049;49.444;8.522;2023-03-03T12:52:08;1.87;;;1.77;;
13953;SDS011;7049;49.444;8.522;2023-03-03T12:57:20;2.87;;;2.27;;
13953;SDS011;7049;49.444;8.522;2023-03-03T13:02:37;4.03;;;2.47;;
13953;SDS011;7049;49.444;8.522;2023-03-03T13:07:45;5.00;;;2.67;;
13953;SDS011;7049;49.444;8.522;2023-03-03T13:12:53;4.00;;;3.67;;
13953;SDS011;7049;49.444;8.522;2023-03-03T13:18:08;5.23;;;2.17;;
13953;SDS011;7049;49.444;8.522;2023-03-03T13:23:21;3.83;;;1.60;;
13953;SDS011;7049;49.444;8.522;2023-03-03T13:28:37;2.80;;;1.63;;
13953;SDS011;7049;49.444;8.522;2023-03-03T13:33:43;3.47;;;2.97;;
13953;SDS011;7049;49.444;8.522;2023-03-03T13:38:53;3.00;;;2.17;;
13953;SDS011;7049;49.444;8.522;2023-03-03T13:43:58;4.50;;;2.53;;
13953;SDS011;7049;49.444;8.522;2023-03-03T13:49:13;4.17;;;2.53;;
13953;SDS011;7049;49.444;8.522;2023-03-03T13:54:35;5.40;;;2.17;;
13953;SDS011;7049;49.444;8.522;2023-03-03T13:59:50;2.83;;;2.27;;
13953;SDS011;7049;49.444;8.522;2023-03-03T14:05:08;1.70;;;1.60;;
13953;SDS011;7049;49.444;8.522;2023-03-03T14:10:16;1.67;;;1.57;;
13953;SDS011;7049;49.444;8.522;2023-03-03T14:15:21;1.87;;;1.77;;
13953;SDS011;7049;49.444;8.522;2023-03-03T14:20:29;3.30;;;1.77;;
13953;SDS011;7049;49.444;8.522;2023-03-03T14:25:52;1.67;;;1.50;;
13953;SDS011;7049;49.444;8.522;2023-03-03T14:30:56;2.33;;;1.87;;
13953;SDS011;7049;49.444;8.522;2023-03-03T14:36:10;3.70;;;1.43;;
13953;SDS011;7049;49.444;8.522;2023-03-03T14:41:16;2.00;;;1.63;;
13953;SDS011;7049;49.444;8.522;2023-03-03T14:46:33;2.00;;;1.90;;
13953;SDS011;7049;49.444;8.522;2023-03-03T14:51:42;3.80;;;2.40;;
13953;SDS011;7049;49.444;8.522;2023-03-03T14:56:56;1.60;;;1.50;;
13953;SDS011;7049;49.444;8.522;2023-03-03T15:02:02;3.13;;;1.80;;
13953;SDS011;7049;49.444;8.522;2023-03-03T15:07:27;2.47;;;1.60;;
13953;SDS011;7049;49.444;8.522;2023-03-03T15:12:35;1.57;;;1.17;;
13953;SDS011;7049;49.444;8.522;2023-03-03T15:17:40;3.00;;;2.17;;
13953;SDS011;7049;49.444;8.522;2023-03-03T15:22:48;2.37;;;2.17;;
13953;SDS011;7049;49.444;8.522;2023-03-03T15:28:05;1.97;;;1.83;;
13953;SDS011;7049;49.444;8.522;2023-03-03T15:33:16;7.93;;;1.30;;
13953;SDS011;7049;49.444;8.522;2023-03-03T15:38:31;2.63;;;1.50;;
13953;SDS011;7049;49.444;8.522;2023-03-03T15:43:39;3.17;;;1.70;;
13953;SDS011;7049;49.444;8.522;2023-03-03T15:48:52;2.53;;;1.97;;
13953;SDS011;7049;49.444;8.522;2023-03-03T15:54:16;5.30;;;1.33;;
13953;SDS011;7049;49.444;8.522;2023-03-03T15:59:32;1.07;;;1.07;;
13953;SDS011;7049;49.444;8.522;2023-03-03T16:04:47;1.30;;;1.07;;
13953;SDS011;7049;49.444;8.522;2023-03-03T16:10:01;1.60;;;1.43;;
13953;SDS011;7049;49.444;8.522;2023-03-03T16:15:16;1.30;;;1.20;;
13953;SDS011;7049;49.444;8.522;2023-03-03T16:20:26;1.70;;;1.67;;
13953;SDS011;7049;49.444;8.522;2023-03-03T16:25:38;1.53;;;1.33;;
13953;SDS011;7049;49.444;8.522;2023-03-03T16:30:49;1.37;;;1.30;;
13953;SDS011;7049;49.444;8.522;2023-03-03T16:35:58;5.53;;;2.03;;
13953;SDS011;7049;49.444;8.522;2023-03-03T16:41:09;1.57;;;1.47;;
13953;SDS011;7049;49.444;8.522;2023-03-03T16:46:19;1.63;;;1.50;;
13953;SDS011;7049;49.444;8.522;2023-03-03T16:51:33;1.37;;;1.37;;
13953;SDS011;7049;49.444;8.522;2023-03-03T16:56:45;2.40;;;1.37;;
13953;SDS011;7049;49.444;8.522;2023-03-03T17:01:55;1.80;;;1.60;;
13953;SDS011;7049;49.444;8.522;2023-03-03T17:07:11;2.03;;;1.13;;
13953;SDS011;7049;49.444;8.522;2023-03-03T17:12:27;1.30;;;1.20;;
13953;SDS011;7049;49.444;8.522;2023-03-03T17:17:43;2.40;;;1.30;;
13953;SDS011;7049;49.444;8.522;2023-03-03T17:22:56;0.70;;;0.70;;
13953;SDS011;7049;49.444;8.522;2023-03-03T17:28:13;1.97;;;1.83;;
13953;SDS011;7049;49.444;8.522;2023-03-03T17:33:31;2.37;;;1.20;;
13953;SDS011;7049;49.444;8.522;2023-03-03T17:38:44;1.83;;;1.33;;
13953;SDS011;7049;49.444;8.522;2023-03-03T17:44:03;2.80;;;1.20;;
13953;SDS011;7049;49.444;8.522;2023-03-03T17:49:14;1.60;;;1.50;;
13953;SDS011;7049;49.444;8.522;2023-03-03T17:54:38;1.30;;;1.20;;
13953;SDS011;7049;49.444;8.522;2023-03-03T17:59:59;1.30;;;1.07;;
13953;SDS011;7049;49.444;8.522;2023-03-03T18:05:22;0.87;;;0.83;;
13953;SDS011;7049;49.444;8.522;2023-03-03T18:10:39;2.80;;;1.87;;
13953;SDS011;7049;49.444;8.522;2023-03-03T18:15:56;3.83;;;1.40;;
13953;SDS011;7049;49.444;8.522;2023-03-03T18:21:07;2.70;;;1.07;;
13953;SDS011;7049;49.444;8.522;2023-03-03T18:26:33;0.97;;;0.90;;
13953;SDS011;7049;49.444;8.522;2023-03-03T18:31:45;0.73;;;0.73;;
13953;SDS011;7049;49.444;8.522;2023-03-03T18:36:52;3.57;;;1.23;;
13953;SDS011;7049;49.444;8.522;2023-03-03T18:42:02;2.87;;;1.63;;
13953;SDS011;7049;49.444;8.522;2023-03-03T18:47:09;0.27;;;0.27;;
13953;SDS011;7049;49.444;8.522;2023-03-03T18:57:31;0.53;;;0.53;;
13953;SDS011;7049;49.444;8.522;2023-03-03T19:02:35;4.63;;;1.20;;
13953;SDS011;7049;49.444;8.522;2023-03-03T19:07:44;0.80;;;0.80;;
13953;SDS011;7049;49.444;8.522;2023-03-03T19:12:50;0.63;;;0.60;;
13953;SDS011;7049;49.444;8.522;2023-03-03T19:17:53;0.80;;;0.60;;
13953;SDS011;7049;49.444;8.522;2023-03-03T19:23:00;1.23;;;0.90;;
13953;SDS011;7049;49.444;8.522;2023-03-03T19:28:10;1.17;;;0.67;;
13953;SDS011;7049;49.444;8.522;2023-03-03T19:33:44;1.27;;;1.27;;
13953;SDS011;7049;49.444;8.522;2023-03-03T19:38:56;8.03;;;1.00;;
13953;SDS011;7049;49.444;8.522;2023-03-03T19:44:10;0.77;;;0.77;;
13953;SDS011;7049;49.444;8.522;2023-03-03T19:49:30;0.70;;;0.70;;
13953;SDS011;7049;49.444;8.522;2023-03-03T19:54:49;1.03;;;0.77;;
13953;SDS011;7049;49.444;8.522;2023-03-03T19:59:59;2.30;;;1.47;;
13953;SDS011;7049;49.444;8.522;2023-03-03T20:05:08;1.27;;;1.27;;
13953;SDS011;7049;49.444;8.522;2023-03-03T20:10:23;0.90;;;0.83;;
13953;SDS011;7049;49.444;8.522;2023-03-03T20:15:40;1.23;;;0.70;;
13953;SDS011;7049;49.444;8.522;2023-03-03T20:20:52;9.40;;;1.03;;
13953;SDS011;7049;49.444;8.522;2023-03-03T20:26:03;1.53;;;1.03;;
13953;SDS011;7049;49.444;8.522;2023-03-03T20:31:13;5.73;;;1.57;;
13953;SDS011;7049;49.444;8.522;2023-03-03T20:36:25;2.03;;;1.07;;
13953;SDS011;7049;49.444;8.522;2023-03-03T20:41:38;0.93;;;0.57;;
13953;SDS011;7049;49.444;8.522;2023-03-03T20:46:52;4.67;;;0.67;;
13953;SDS011;7049;49.444;8.522;2023-03-03T20:52:04;1.73;;;1.10;;
13953;SDS011;7049;49.444;8.522;2023-03-03T20:57:13;2.40;;;1.00;;
13953;SDS011;7049;49.444;8.522;2023-03-03T21:02:22;0.57;;;0.57;;
13953;SDS011;7049;49.444;8.522;2023-03-03T21:07:32;0.33;;;0.33;;
13953;SDS011;7049;49.444;8.522;2023-03-03T21:12:35;1.57;;;1.37;;
13953;SDS011;7049;49.444;8.522;2023-03-03T21:17:36;1.03;;;0.80;;
13953;SDS011;7049;49.444;8.522;2023-03-03T21:22:39;1.17;;;0.63;;
13953;SDS011;7049;49.444;8.522;2023-03-03T21:27:41;0.83;;;0.83;;
13953;SDS011;7049;49.444;8.522;2023-03-03T21:32:43;0.53;;;0.53;;
13953;SDS011;7049;49.444;8.522;2023-03-03T21:37:49;0.83;;;0.53;;
13953;SDS011;7049;49.444;8.522;2023-03-03T21:42:52;0.60;;;0.60;;
13953;SDS011;7049;49.444;8.522;2023-03-03T21:47:55;1.80;;;0.80;;
13953;SDS011;7049;49.444;8.522;2023-03-03T21:52:58;1.90;;;1.53;;
13953;SDS011;7049;49.444;8.522;2023-03-03T21:58:00;0.80;;;0.80;;
13953;SDS011;7049;49.444;8.522;2023-03-03T22:03:01;0.73;;;0.73;;
13953;SDS011;7049;49.444;8.522;2023-03-03T22:08:04;1.27;;;1.10;;
13953;SDS011;7049;49.444;8.522;2023-03-03T22:13:06;0.93;;;0.90;;
13953;SDS011;7049;49.444;8.522;2023-03-03T22:18:07;1.73;;;1.60;;
13953;SDS011;7049;49.444;8.522;2023-03-03T22:23:10;1.33;;;1.23;;
13953;SDS011;7049;49.444;8.522;2023-03-03T22:28:12;1.13;;;0.87;;
13953;SDS011;7049;49.444;8.522;2023-03-03T22:33:13;2.07;;;1.30;;
13953;SDS011;7049;49.444;8.522;2023-03-03T22:38:16;1.53;;;1.30;;
13953;SDS011;7049;49.444;8.522;2023-03-03T22:43:17;1.30;;;1.23;;
13953;SDS011;7049;49.444;8.522;2023-03-03T22:48:19;2.30;;;1.23;;
13953;SDS011;7049;49.444;8.522;2023-03-03T22:53:23;2.93;;;1.73;;
13953;SDS011;7049;49.444;8.522;2023-03-03T22:58:26;2.20;;;1.63;;
13953;SDS011;7049;49.444;8.522;2023-03-03T23:03:28;2.07;;;1.97;;
13953;SDS011;7049;49.444;8.522;2023-03-03T23:08:32;1.73;;;1.57;;
13953;SDS011;7049;49.444;8.522;2023-03-03T23:13:34;2.40;;;1.63;;
13953;SDS011;7049;49.444;8.522;2023-03-03T23:18:35;1.00;;;1.00;;
13953;SDS011;7049;49.444;8.522;2023-03-03T23:23:38;3.30;;;2.00;;
13953;SDS011;7049;49.444;8.522;2023-03-03T23:28:39;5.63;;;1.97;;
13953;SDS011;7049;49.444;8.522;2023-03-03T23:33:41;3.80;;;1.43;;
13953;SDS011;7049;49.444;8.522;2023-03-03T23:38:43;2.83;;;2.00;;
13953;SDS011;7049;49.444;8.522;2023-03-03T23:43:45;1.13;;;1.00;;
13953;SDS011;7049;49.444;8.522;2023-03-03T23:48:46;1.87;;;1.77;;
13953;SDS011;7049;49.444;8.522;2023-03-03T23:53:49;2.10;;;1.70;;
13953;SDS011;7049;49.444;8.522;2023-03-03T23:58:50;3.80;;;2.27;;
